Time;durP1;ratioP1;P1;durP2;ratioP2;P2;SDS_P1;SDS_P2;PMS_P1;PMS_P2;Temp;Humidity;BMP_temperature;BMP_pressure;BME280_temperature;BME280_humidity;BME280_pressure;Samples;Min_cycle;Max_cycle;Signal;HPM_P1;HPM_P2
2022/04/15 00:01:25;;;;;;;10.53;8.73;;;18.10;99.90;;;;;;5019720;28;20521;-76
2022/04/15 00:03:51;;;;;;;12.03;8.60;;;17.90;99.90;;;;;;5020091;28;20250;-77
2022/04/15 00:06:17;;;;;;;11.50;9.33;;;18.00;99.90;;;;;;5022086;28;20431;-76
2022/04/15 00:08:43;;;;;;;9.83;8.53;;;18.10;99.90;;;;;;5021856;28;20496;-76
2022/04/15 00:11:09;;;;;;;11.97;8.80;;;18.00;99.90;;;;;;5019536;28;20455;-73
2022/04/15 00:13:36;;;;;;;12.07;8.23;;;17.80;99.90;;;;;;5020040;28;20560;-74
2022/04/15 00:16:05;;;;;;;11.47;7.83;;;17.90;99.90;;;;;;5022460;28;20579;-76
2022/04/15 00:18:32;;;;;;;11.00;7.90;;;17.60;99.90;;;;;;5025178;28;20477;-74
2022/04/15 00:20:59;;;;;;;8.77;7.50;;;17.40;99.90;;;;;;5024547;28;20452;-78
2022/04/15 00:23:25;;;;;;;11.50;8.07;;;17.50;99.90;;;;;;5022687;28;20457;-77
2022/04/15 00:25:51;;;;;;;11.17;8.57;;;17.70;99.90;;;;;;5023121;28;20427;-77
2022/04/15 00:28:17;;;;;;;12.93;8.27;;;17.60;99.90;;;;;;5026645;28;20184;-74
2022/04/15 00:30:43;;;;;;;13.23;8.50;;;17.60;99.90;;;;;;5027308;28;20451;-74
2022/04/15 00:33:09;;;;;;;13.87;10.27;;;17.40;99.90;;;;;;5023307;28;20524;-76
2022/04/15 00:35:34;;;;;;;8.90;8.00;;;17.10;99.90;;;;;;5018491;28;20185;-77
2022/04/15 00:38:00;;;;;;;9.80;8.80;;;17.20;99.90;;;;;;5018482;28;20204;-77
2022/04/15 00:40:26;;;;;;;9.30;8.43;;;17.30;99.90;;;;;;5019126;28;20209;-77
2022/04/15 00:42:52;;;;;;;8.83;7.53;;;17.30;99.90;;;;;;5019741;28;20196;-76
2022/04/15 00:45:18;;;;;;;10.30;8.10;;;17.50;99.90;;;;;;5019951;28;20191;-77
2022/04/15 00:47:55;;;;;;;11.30;7.83;;;17.60;99.90;;;;;;5020044;28;20177;-79
2022/04/15 00:50:34;;;;;;;11.07;7.70;;;17.60;99.90;;;;;;5022532;28;20486;-77
2022/04/15 00:53:06;;;;;;;9.73;8.20;;;17.60;99.90;;;;;;5024598;28;20506;-76
2022/04/15 00:55:32;;;;;;;11.60;8.23;;;17.50;99.90;;;;;;5020750;28;20434;-76
2022/04/15 00:58:03;;;;;;;8.67;7.80;;;17.30;99.90;;;;;;5015159;28;21071;-78
2022/04/15 01:00:31;;;;;;;9.27;7.67;;;17.00;99.90;;;;;;5020779;28;20459;-77
2022/04/15 01:02:58;;;;;;;16.30;8.53;;;17.10;99.90;;;;;;5020452;28;20427;-78
2022/04/15 01:05:25;;;;;;;10.90;8.60;;;17.10;99.90;;;;;;5019943;28;20558;-79
2022/04/15 01:07:55;;;;;;;11.33;7.90;;;17.10;99.90;;;;;;5022530;28;20956;-79
2022/04/15 01:10:22;;;;;;;16.63;8.57;;;17.30;99.90;;;;;;5015425;28;20451;-79
2022/04/15 01:12:56;;;;;;;10.80;8.47;;;17.10;99.90;;;;;;5017771;28;20869;-79
2022/04/15 01:15:23;;;;;;;11.97;8.77;;;17.10;99.90;;;;;;5019833;28;20485;-78
2022/04/15 01:17:49;;;;;;;16.23;8.83;;;17.10;99.90;;;;;;5017907;28;21057;-78
2022/04/15 01:20:15;;;;;;;10.10;8.13;;;17.00;99.90;;;;;;5020365;28;20447;-78
2022/04/15 01:22:43;;;;;;;9.47;8.47;;;16.80;99.90;;;;;;5019742;28;20176;-77
2022/04/15 01:25:12;;;;;;;12.37;8.80;;;17.00;99.90;;;;;;5016810;28;20439;-79
2022/04/15 01:27:39;;;;;;;10.30;7.50;;;17.00;99.90;;;;;;5021143;28;20463;-76
2022/04/15 01:30:10;;;;;;;9.20;8.10;;;16.90;99.90;;;;;;5021245;28;20537;-76
2022/04/15 01:32:35;;;;;;;13.23;7.90;;;16.90;99.90;;;;;;5017575;28;20447;-77
2022/04/15 01:35:01;;;;;;;9.43;8.53;;;17.00;99.90;;;;;;5017945;28;20610;-77
2022/04/15 01:37:29;;;;;;;9.90;8.40;;;17.00;99.90;;;;;;5017429;28;20215;-79
2022/04/15 01:39:55;;;;;;;12.33;8.07;;;16.90;99.90;;;;;;5016478;28;20254;-78
2022/04/15 01:42:20;;;;;;;11.17;7.60;;;16.80;99.90;;;;;;5014326;28;21130;-76
2022/04/15 01:44:46;;;;;;;8.27;7.17;;;16.80;99.90;;;;;;5019561;28;20189;-77
2022/04/15 01:47:11;;;;;;;9.37;7.80;;;16.80;99.90;;;;;;5019175;28;20172;-77
2022/04/15 01:49:37;;;;;;;9.20;7.90;;;16.80;99.90;;;;;;5019039;28;20821;-78
2022/04/15 01:52:04;;;;;;;9.90;8.33;;;16.60;99.90;;;;;;5018238;28;20259;-76
2022/04/15 01:54:30;;;;;;;12.30;8.17;;;16.30;99.90;;;;;;5021264;28;20489;-77
2022/04/15 01:56:57;;;;;;;10.37;8.23;;;16.60;99.90;;;;;;5014710;28;20451;-78
2022/04/15 01:59:23;;;;;;;10.40;7.50;;;16.60;99.90;;;;;;5016218;28;21154;-77
2022/04/15 02:01:54;;;;;;;8.10;7.27;;;16.70;99.90;;;;;;5010259;28;20435;-77
2022/04/15 02:04:23;;;;;;;11.00;7.87;;;16.80;99.90;;;;;;5019643;28;20436;-77
2022/04/15 02:06:49;;;;;;;10.53;8.30;;;16.90;99.90;;;;;;5018479;28;20522;-77
2022/04/15 02:09:15;;;;;;;10.73;7.73;;;16.70;99.90;;;;;;5017242;28;20521;-77
2022/04/15 02:11:41;;;;;;;9.63;7.80;;;16.90;99.90;;;;;;5018304;28;20231;-77
2022/04/15 02:14:06;;;;;;;13.20;9.60;;;16.80;99.90;;;;;;5014755;28;20436;-77
2022/04/15 02:16:32;;;;;;;8.77;7.87;;;16.80;99.90;;;;;;5017972;28;20172;-78
2022/04/15 02:18:58;;;;;;;9.23;7.40;;;16.40;99.90;;;;;;5021298;28;20350;-77
2022/04/15 02:21:24;;;;;;;10.60;8.97;;;16.30;99.90;;;;;;5015076;28;20459;-77
2022/04/15 02:23:49;;;;;;;10.70;8.20;;;15.90;99.90;;;;;;5014580;28;20209;-76
2022/04/15 02:26:15;;;;;;;10.80;9.03;;;16.00;99.90;;;;;;5019064;28;20179;-76
2022/04/15 02:28:40;;;;;;;10.70;8.33;;;16.00;99.90;;;;;;5015911;28;20773;-76
2022/04/15 02:31:06;;;;;;;8.30;7.50;;;16.00;99.90;;;;;;5016049;28;20213;-76
2022/04/15 02:33:32;;;;;;;14.47;8.80;;;16.20;99.90;;;;;;5018755;28;20748;-76
2022/04/15 02:35:57;;;;;;;8.30;7.23;;;16.30;99.90;;;;;;5019877;28;20284;-76
2022/04/15 02:38:23;;;;;;;9.00;7.50;;;16.30;99.90;;;;;;5019002;28;20737;-77
2022/04/15 02:40:48;;;;;;;8.50;7.60;;;16.20;99.90;;;;;;5016275;28;20209;-76
2022/04/15 02:43:15;;;;;;;11.67;7.37;;;16.30;99.90;;;;;;5019570;28;20252;-79
2022/04/15 02:45:42;;;;;;;9.63;7.97;;;16.50;99.90;;;;;;5018784;28;20176;-77
2022/04/15 02:48:07;;;;;;;8.87;7.97;;;16.50;99.90;;;;;;5017274;28;20504;-77
2022/04/15 02:50:33;;;;;;;11.13;8.67;;;16.40;99.90;;;;;;5018943;28;20487;-76
2022/04/15 02:53:01;;;;;;;7.93;7.13;;;16.40;99.90;;;;;;5019360;28;20845;-76
2022/04/15 02:55:26;;;;;;;9.30;7.73;;;16.40;99.90;;;;;;5017855;28;20535;-80
2022/04/15 02:57:52;;;;;;;9.10;7.57;;;16.40;99.90;;;;;;5016749;28;20525;-79
2022/04/15 03:00:19;;;;;;;12.00;7.63;;;16.30;99.90;;;;;;5019324;28;20262;-80
2022/04/15 03:02:47;;;;;;;10.67;7.20;;;16.00;99.90;;;;;;5014737;28;20469;-78
2022/04/15 03:05:13;;;;;;;9.80;6.80;;;16.10;99.90;;;;;;5014671;28;20469;-78
2022/04/15 03:07:40;;;;;;;9.37;7.40;;;16.10;99.90;;;;;;5018500;28;20431;-77
2022/04/15 03:10:07;;;;;;;12.27;7.63;;;16.00;99.90;;;;;;5014784;28;20624;-77
2022/04/15 03:12:36;;;;;;;10.77;7.63;;;15.90;99.90;;;;;;5017708;28;20772;-78
2022/04/15 03:15:04;;;;;;;13.43;7.07;;;15.40;99.90;;;;;;5016230;28;20522;-77
2022/04/15 03:17:32;;;;;;;9.50;7.60;;;15.40;99.90;;;;;;5015953;28;20438;-76
2022/04/15 03:19:58;;;;;;;13.73;7.30;;;15.80;99.90;;;;;;5016601;28;20537;-77
2022/04/15 03:22:23;;;;;;;8.13;7.33;;;15.90;99.90;;;;;;5015441;28;20921;-76
2022/04/15 03:24:52;;;;;;;7.97;6.30;;;15.90;99.90;;;;;;5015687;28;20238;-77
2022/04/15 03:27:17;;;;;;;12.13;6.97;;;16.00;99.90;;;;;;5017824;28;20208;-76
2022/04/15 03:29:43;;;;;;;7.40;6.43;;;16.10;99.90;;;;;;5019329;28;20489;-79
2022/04/15 03:32:10;;;;;;;7.70;6.90;;;16.20;99.90;;;;;;5013652;28;20180;-77
2022/04/15 03:34:36;;;;;;;7.67;6.67;;;16.30;99.90;;;;;;5011802;28;20262;-77
2022/04/15 03:37:03;;;;;;;9.93;6.73;;;16.30;99.90;;;;;;5016422;28;20832;-76
2022/04/15 03:39:29;;;;;;;10.97;7.13;;;16.30;99.90;;;;;;5013273;28;20481;-76
2022/04/15 03:41:54;;;;;;;10.60;8.53;;;16.30;99.90;;;;;;5015105;28;20427;-76
2022/04/15 03:44:20;;;;;;;9.03;7.10;;;16.10;99.90;;;;;;5013049;28;20183;-76
2022/04/15 03:46:46;;;;;;;7.57;6.57;;;16.10;99.90;;;;;;5017747;28;20189;-78
2022/04/15 03:49:11;;;;;;;8.53;7.30;;;15.80;99.90;;;;;;5019159;28;20185;-77
2022/04/15 03:51:37;;;;;;;7.70;6.53;;;15.80;99.90;;;;;;5015884;28;20263;-77
2022/04/15 03:54:03;;;;;;;9.03;6.77;;;15.90;99.90;;;;;;5016790;28;20616;-76
2022/04/15 03:56:29;;;;;;;7.50;6.50;;;16.00;99.90;;;;;;5017062;28;20451;-77
2022/04/15 03:58:54;;;;;;;8.30;7.20;;;15.90;99.90;;;;;;5017908;28;20337;-76
2022/04/15 04:01:20;;;;;;;9.67;8.07;;;16.00;99.90;;;;;;5018335;28;20193;-76
2022/04/15 04:03:46;;;;;;;10.80;6.97;;;16.00;99.90;;;;;;5017519;28;20218;-76
2022/04/15 04:06:12;;;;;;;7.57;6.87;;;15.90;99.90;;;;;;5015637;28;20173;-76
2022/04/15 04:08:37;;;;;;;9.00;7.53;;;16.00;99.90;;;;;;5014081;28;20439;-77
2022/04/15 04:11:03;;;;;;;7.20;6.50;;;16.00;99.90;;;;;;5015714;28;20287;-77
2022/04/15 04:13:29;;;;;;;11.90;7.77;;;15.60;99.90;;;;;;5016724;28;20192;-78
2022/04/15 04:15:54;;;;;;;9.80;8.27;;;15.80;99.90;;;;;;5020023;28;20184;-78
2022/04/15 04:18:23;;;;;;;11.10;7.40;;;15.40;99.90;;;;;;5017595;28;21016;-78
2022/04/15 04:20:49;;;;;;;11.10;7.60;;;15.40;99.90;;;;;;5016818;28;20211;-76
2022/04/15 04:23:14;;;;;;;10.03;7.70;;;15.30;99.90;;;;;;5021327;28;20466;-76
2022/04/15 04:25:42;;;;;;;9.17;7.77;;;15.40;99.90;;;;;;5017545;28;20238;-74
2022/04/15 04:28:08;;;;;;;7.93;7.13;;;15.50;99.90;;;;;;5014447;28;20584;-76
2022/04/15 04:30:33;;;;;;;9.03;7.80;;;15.60;99.90;;;;;;5021048;28;20475;-79
2022/04/15 04:32:59;;;;;;;8.67;7.77;;;15.70;99.90;;;;;;5024604;28;20246;-76
2022/04/15 04:35:25;;;;;;;11.47;8.60;;;15.60;99.90;;;;;;5020296;28;20236;-76
2022/04/15 04:37:51;;;;;;;13.13;9.50;;;15.40;99.90;;;;;;5019386;28;20548;-77
2022/04/15 04:40:17;;;;;;;11.60;8.90;;;15.20;99.90;;;;;;5017409;28;20549;-76
2022/04/15 04:42:44;;;;;;;10.30;8.70;;;14.90;99.90;;;;;;5011055;28;20187;-76
2022/04/15 04:45:10;;;;;;;11.73;8.40;;;15.00;99.90;;;;;;5016147;28;22787;-77
2022/04/15 04:47:39;;;;;;;12.33;8.80;;;15.20;99.90;;;;;;5015558;28;20523;-77
2022/04/15 04:50:08;;;;;;;10.80;9.50;;;15.10;99.90;;;;;;5025999;28;20207;-76
2022/04/15 04:52:35;;;;;;;10.43;9.27;;;15.10;99.90;;;;;;5016341;28;20444;-74
2022/04/15 04:55:00;;;;;;;12.17;9.40;;;15.00;99.90;;;;;;5020041;28;20537;-74
2022/04/15 04:57:26;;;;;;;10.70;8.90;;;14.90;99.90;;;;;;5016143;28;20519;-74
2022/04/15 04:59:52;;;;;;;10.43;9.20;;;14.90;99.90;;;;;;5017789;28;20309;-75
2022/04/15 05:02:17;;;;;;;10.73;9.20;;;15.00;99.90;;;;;;5017189;28;20177;-75
2022/04/15 05:04:43;;;;;;;11.40;8.77;;;14.90;99.90;;;;;;5019570;28;20192;-75
2022/04/15 05:07:08;;;;;;;10.63;9.63;;;15.00;99.90;;;;;;5017396;28;20207;-76
2022/04/15 05:09:34;;;;;;;13.37;9.13;;;15.00;99.90;;;;;;5013176;28;20209;-77
2022/04/15 05:12:00;;;;;;;11.33;9.53;;;15.00;99.90;;;;;;5018567;28;20207;-75
2022/04/15 05:14:25;;;;;;;14.40;10.33;;;15.10;99.90;;;;;;5017352;28;20193;-75
2022/04/15 05:16:51;;;;;;;13.57;10.20;;;15.00;99.90;;;;;;5017461;28;20255;-74
2022/04/15 05:19:16;;;;;;;11.70;9.30;;;14.90;99.90;;;;;;5017838;28;20210;-75
2022/04/15 05:21:42;;;;;;;13.23;9.90;;;15.00;99.90;;;;;;5020018;28;20304;-76
2022/04/15 05:24:09;;;;;;;12.30;10.57;;;15.00;99.90;;;;;;5017889;28;20196;-77
2022/04/15 05:26:35;;;;;;;15.30;10.20;;;15.00;99.90;;;;;;5019176;28;20185;-77
2022/04/15 05:29:01;;;;;;;13.10;10.27;;;15.30;99.90;;;;;;5016606;28;20462;-76
2022/04/15 05:31:27;;;;;;;13.03;10.90;;;15.50;99.90;;;;;;5016164;28;20451;-76
2022/04/15 05:33:52;;;;;;;12.30;9.93;;;15.50;99.90;;;;;;5021561;28;20254;-76
2022/04/15 05:36:18;;;;;;;13.00;9.90;;;15.50;99.90;;;;;;5020155;28;20232;-76
2022/04/15 05:38:43;;;;;;;12.10;9.77;;;15.50;99.90;;;;;;5017436;28;20227;-75
2022/04/15 05:41:09;;;;;;;12.23;9.93;;;15.40;99.90;;;;;;5011771;28;20853;-77
2022/04/15 05:43:35;;;;;;;11.07;9.23;;;15.50;99.90;;;;;;5016861;28;20565;-76
2022/04/15 05:46:01;;;;;;;14.97;9.40;;;15.70;99.90;;;;;;5016822;28;20176;-77
2022/04/15 05:48:26;;;;;;;12.33;9.47;;;15.60;99.90;;;;;;5014088;28;20984;-76
2022/04/15 05:50:52;;;;;;;11.10;9.67;;;15.70;99.90;;;;;;5011649;28;20204;-76
2022/04/15 05:53:18;;;;;;;12.63;9.70;;;15.90;99.90;;;;;;5015718;28;20584;-75
2022/04/15 05:55:44;;;;;;;16.03;10.40;;;15.50;99.90;;;;;;5017969;28;20446;-76
2022/04/15 05:58:10;;;;;;;11.80;10.10;;;15.60;99.90;;;;;;5012319;28;20744;-74
2022/04/15 06:00:36;;;;;;;14.03;11.53;;;15.70;99.90;;;;;;5017276;28;20208;-77
2022/04/15 06:03:02;;;;;;;16.80;12.00;;;15.60;99.90;;;;;;5017586;28;20492;-77
2022/04/15 06:05:28;;;;;;;20.07;13.17;;;15.70;99.90;;;;;;5014666;28;20515;-77
2022/04/15 06:07:53;;;;;;;14.20;11.10;;;15.90;99.90;;;;;;5015274;28;20538;-76
2022/04/15 06:10:20;;;;;;;16.10;12.87;;;16.00;99.90;;;;;;5010789;28;20259;-78
2022/04/15 06:13:02;;;;;;;13.20;11.90;;;16.00;99.90;;;;;;5011489;28;20196;-77
2022/04/15 06:15:32;;;;;;;18.70;14.40;;;15.70;99.90;;;;;;5022163;28;20435;-78
2022/04/15 06:18:00;;;;;;;18.03;13.03;;;16.00;99.90;;;;;;5020111;28;20957;-78
2022/04/15 06:20:29;;;;;;;16.63;14.70;;;16.20;99.90;;;;;;5017403;28;20470;-77
2022/04/15 06:22:56;;;;;;;17.03;15.10;;;16.20;99.90;;;;;;5017582;28;21066;-77
2022/04/15 06:25:22;;;;;;;37.80;28.10;;;16.40;99.90;;;;;;5021776;28;20488;-75
2022/04/15 06:27:47;;;;;;;20.00;17.90;;;16.50;99.90;;;;;;5020932;28;20448;-76
2022/04/15 06:30:13;;;;;;;17.87;15.90;;;16.50;99.90;;;;;;5017472;28;20224;-76
2022/04/15 06:32:39;;;;;;;17.77;15.40;;;16.60;99.90;;;;;;5024685;28;20179;-77
2022/04/15 06:35:05;;;;;;;20.33;17.43;;;16.80;99.90;;;;;;5022352;28;20193;-78
2022/04/15 06:37:31;;;;;;;19.23;16.03;;;16.90;99.90;;;;;;5017508;28;20176;-79
2022/04/15 06:39:57;;;;;;;21.83;16.13;;;16.90;99.90;;;;;;5020654;28;20875;-79
2022/04/15 06:42:24;;;;;;;19.40;15.47;;;16.90;99.90;;;;;;5020661;28;20805;-77
2022/04/15 06:44:50;;;;;;;17.83;15.53;;;17.00;99.90;;;;;;5018440;28;20242;-78
2022/04/15 06:47:16;;;;;;;21.80;18.20;;;16.90;99.90;;;;;;5017172;28;21002;-78
2022/04/15 06:49:43;;;;;;;19.30;17.10;;;16.90;99.90;;;;;;5020800;28;20547;-76
2022/04/15 06:52:09;;;;;;;24.50;17.97;;;17.00;99.90;;;;;;5016389;28;20450;-77
2022/04/15 06:54:35;;;;;;;24.13;17.23;;;17.20;99.90;;;;;;5021193;28;21347;-79
2022/04/15 06:57:01;;;;;;;23.00;19.50;;;17.20;99.90;;;;;;5022964;28;20489;-79
2022/04/15 06:59:27;;;;;;;18.37;16.13;;;17.20;99.90;;;;;;5024315;28;20217;-77
2022/04/15 07:01:55;;;;;;;19.10;16.90;;;17.10;99.90;;;;;;5021937;28;20208;-76
2022/04/15 07:04:21;;;;;;;22.50;18.50;;;17.20;99.90;;;;;;5022041;28;20436;-77
2022/04/15 07:06:47;;;;;;;27.17;20.43;;;17.20;99.90;;;;;;5031894;28;20432;-77
2022/04/15 07:09:12;;;;;;;24.77;20.73;;;17.10;99.90;;;;;;5040549;28;20437;-78
2022/04/15 07:11:38;;;;;;;23.70;20.00;;;17.00;99.90;;;;;;5030011;28;20446;-76
2022/04/15 07:14:05;;;;;;;32.40;21.93;;;17.10;99.90;;;;;;5024656;28;20188;-76
2022/04/15 07:16:31;;;;;;;24.40;19.77;;;17.10;99.90;;;;;;5018642;28;20177;-78
2022/04/15 07:18:57;;;;;;;24.33;20.23;;;17.00;99.90;;;;;;5024935;28;20470;-75
2022/04/15 07:21:24;;;;;;;24.83;20.13;;;17.10;99.90;;;;;;5017567;28;20456;-75
2022/04/15 07:23:50;;;;;;;30.77;19.00;;;17.20;99.90;;;;;;5023290;28;20974;-76
2022/04/15 07:26:16;;;;;;;24.53;20.23;;;17.00;99.90;;;;;;5017857;28;20445;-76
2022/04/15 07:28:41;;;;;;;27.87;21.33;;;17.00;99.90;;;;;;5013946;28;20189;-75
2022/04/15 07:31:07;;;;;;;24.17;21.50;;;17.00;99.90;;;;;;5020252;28;20222;-74
2022/04/15 07:33:32;;;;;;;23.33;18.27;;;17.10;99.90;;;;;;5014545;28;20188;-74
2022/04/15 07:35:58;;;;;;;28.83;21.50;;;17.00;99.90;;;;;;5014951;28;20781;-74
2022/04/15 07:38:24;;;;;;;24.30;21.43;;;17.00;99.90;;;;;;5012779;28;20423;-73
2022/04/15 07:40:49;;;;;;;26.00;21.43;;;17.00;99.90;;;;;;5010836;28;20223;-73
2022/04/15 07:43:15;;;;;;;26.03;20.80;;;17.00;99.90;;;;;;5013271;28;20191;-74
2022/04/15 07:45:41;;;;;;;23.33;19.70;;;17.10;99.90;;;;;;5015625;28;20184;-75
2022/04/15 07:48:06;;;;;;;23.17;18.73;;;17.10;99.90;;;;;;5020888;28;20245;-74
2022/04/15 07:50:32;;;;;;;24.27;20.10;;;17.20;99.90;;;;;;5016307;28;20568;-78
2022/04/15 07:52:59;;;;;;;26.73;18.60;;;17.20;99.90;;;;;;5023193;28;20442;-74
2022/04/15 07:55:26;;;;;;;20.37;17.80;;;17.20;99.90;;;;;;5025068;28;20952;-74
2022/04/15 07:57:52;;;;;;;22.07;18.07;;;17.20;99.90;;;;;;5021247;28;20509;-76
2022/04/15 08:00:19;;;;;;;26.07;18.90;;;17.40;99.90;;;;;;5023049;28;20489;-76
2022/04/15 08:02:44;;;;;;;22.67;18.17;;;17.40;99.90;;;;;;5030503;28;20429;-76
2022/04/15 08:05:10;;;;;;;20.00;15.80;;;17.40;99.90;;;;;;5015874;28;20945;-76
2022/04/15 08:07:35;;;;;;;22.27;17.17;;;17.50;99.90;;;;;;5021125;28;20181;-76
2022/04/15 08:10:03;;;;;;;23.20;19.20;;;17.50;99.90;;;;;;5017323;28;20229;-80
2022/04/15 08:12:29;;;;;;;19.47;17.40;;;17.60;99.90;;;;;;5024283;28;20871;-76
2022/04/15 08:14:55;;;;;;;24.13;18.00;;;17.60;99.90;;;;;;5021679;28;20439;-75
2022/04/15 08:17:21;;;;;;;23.10;17.57;;;17.60;99.90;;;;;;5017187;28;20801;-75
2022/04/15 08:19:47;;;;;;;24.30;20.80;;;17.70;99.90;;;;;;5014498;28;20511;-75
2022/04/15 08:22:12;;;;;;;20.83;18.13;;;17.60;99.90;;;;;;5023939;28;20187;-76
2022/04/15 08:24:42;;;;;;;24.53;19.07;;;17.50;99.90;;;;;;5020969;28;20736;-76
2022/04/15 08:27:09;;;;;;;28.23;19.00;;;17.60;99.90;;;;;;5022511;28;20910;-76
2022/04/15 08:29:38;;;;;;;27.10;17.47;;;17.70;99.90;;;;;;5019578;28;20537;-76
2022/04/15 08:32:06;;;;;;;22.57;18.57;;;17.70;99.90;;;;;;5021662;28;20435;-77
2022/04/15 08:34:32;;;;;;;19.53;16.83;;;17.50;99.90;;;;;;5018876;28;20430;-78
2022/04/15 08:36:58;;;;;;;21.50;18.77;;;17.60;99.90;;;;;;5023388;28;21293;-77
2022/04/15 08:39:23;;;;;;;21.27;15.57;;;17.70;99.90;;;;;;5020549;28;20200;-78
2022/04/15 08:41:49;;;;;;;19.90;17.43;;;17.80;99.90;;;;;;5019108;28;20177;-81
2022/04/15 08:44:14;;;;;;;21.87;19.63;;;17.80;99.90;;;;;;5017784;28;20185;-77
2022/04/15 08:46:41;;;;;;;19.10;15.80;;;17.80;99.90;;;;;;5023470;28;20231;-78
2022/04/15 08:49:07;;;;;;;20.47;18.07;;;17.80;99.90;;;;;;5023673;28;20759;-78
2022/04/15 08:51:35;;;;;;;26.33;18.00;;;17.90;99.90;;;;;;5021313;28;20960;-78
2022/04/15 08:54:03;;;;;;;21.50;17.90;;;18.10;99.90;;;;;;5021061;28;20908;-77
2022/04/15 08:56:29;;;;;;;21.43;17.57;;;18.00;99.90;;;;;;5020697;28;20945;-77
2022/04/15 08:58:56;;;;;;;22.40;19.03;;;17.90;99.90;;;;;;5021704;28;20522;-77
2022/04/15 09:01:21;;;;;;;22.33;19.63;;;17.80;99.90;;;;;;5021584;28;20466;-77
2022/04/15 09:03:47;;;;;;;25.63;19.23;;;18.00;99.90;;;;;;5017800;28;20435;-77
2022/04/15 09:06:17;;;;;;;21.03;17.73;;;17.80;99.90;;;;;;5022433;28;20173;-77
2022/04/15 09:09:06;;;;;;;25.50;18.00;;;18.00;99.90;;;;;;5020936;28;20185;-78
2022/04/15 09:11:34;;;;;;;19.77;17.00;;;18.30;99.90;;;;;;5021764;28;20516;-77
2022/04/15 09:14:13;;;;;;;23.90;17.47;;;18.30;99.90;;;;;;5020934;28;20441;-78
2022/04/15 09:16:40;;;;;;;20.60;17.90;;;18.40;99.90;;;;;;5024911;28;20565;-78
2022/04/15 09:19:07;;;;;;;24.83;21.63;;;18.40;99.90;;;;;;5021934;28;20907;-78
2022/04/15 09:21:33;;;;;;;23.03;17.77;;;18.40;99.90;;;;;;5022635;28;20466;-78
2022/04/15 09:23:59;;;;;;;21.80;17.60;;;18.40;99.90;;;;;;5018295;28;20443;-77
2022/04/15 09:26:25;;;;;;;22.07;17.37;;;18.40;99.90;;;;;;5019161;28;20432;-77
2022/04/15 09:28:53;;;;;;;20.30;18.20;;;18.50;99.90;;;;;;5020163;28;20193;-77
2022/04/15 09:31:23;;;;;;;19.83;16.30;;;18.60;99.90;;;;;;5021899;28;20471;-77
2022/04/15 09:34:01;;;;;;;21.20;16.20;;;18.60;99.90;;;;;;5021156;28;20526;-80
2022/04/15 09:36:38;;;;;;;19.97;17.43;;;18.70;99.90;;;;;;5016356;28;20450;-79
2022/04/15 09:39:14;;;;;;;22.77;16.80;;;18.70;99.90;;;;;;5021874;28;21066;-73
2022/04/15 09:41:50;;;;;;;18.90;16.10;;;18.60;99.90;;;;;;5031500;28;20492;-74
2022/04/15 09:44:15;;;;;;;19.77;17.67;;;18.70;99.90;;;;;;5021706;28;20411;-74
2022/04/15 09:46:42;;;;;;;18.67;16.60;;;18.80;99.90;;;;;;5018471;28;20801;-75
2022/04/15 09:49:09;;;;;;;22.10;19.27;;;18.80;99.90;;;;;;5014570;28;20195;-74
2022/04/15 09:51:43;;;;;;;27.30;17.43;;;18.80;99.90;;;;;;5020460;28;20991;-74
2022/04/15 09:54:18;;;;;;;21.63;17.67;;;18.90;99.90;;;;;;5016147;28;20436;-74
2022/04/15 09:56:46;;;;;;;20.00;17.70;;;19.00;99.90;;;;;;5014446;28;20440;-73
2022/04/15 09:59:15;;;;;;;19.07;16.40;;;19.00;99.90;;;;;;5017201;28;20562;-74
2022/04/15 10:01:45;;;;;;;20.77;17.43;;;19.20;99.90;;;;;;5018707;28;20427;-73
2022/04/15 10:04:13;;;;;;;19.03;16.93;;;19.30;99.90;;;;;;5017269;28;20488;-74
2022/04/15 10:06:40;;;;;;;18.00;15.60;;;19.40;99.90;;;;;;5013407;28;20428;-75
2022/04/15 10:09:11;;;;;;;18.83;16.87;;;19.30;99.90;;;;;;5017423;28;20447;-75
2022/04/15 10:11:42;;;;;;;19.27;15.40;;;19.50;99.90;;;;;;5017085;28;20443;-74
2022/04/15 10:14:10;;;;;;;18.53;14.60;;;19.70;99.90;;;;;;5016857;28;20547;-74
2022/04/15 10:16:38;;;;;;;18.73;15.30;;;19.80;99.90;;;;;;5013390;28;21217;-73
2022/04/15 10:19:04;;;;;;;16.00;14.40;;;19.90;99.90;;;;;;5018915;28;20478;-73
2022/04/15 10:21:35;;;;;;;17.83;15.87;;;20.00;99.90;;;;;;5014311;28;20455;-75
2022/04/15 10:24:02;;;;;;;16.17;14.40;;;19.90;99.90;;;;;;5013412;28;20185;-74
2022/04/15 10:26:39;;;;;;;17.83;16.03;;;19.80;99.90;;;;;;5019335;28;20446;-74
2022/04/15 10:29:05;;;;;;;16.57;14.97;;;19.80;99.90;;;;;;5020797;28;20512;-74
2022/04/15 10:31:54;;;;;;;19.53;17.00;;;19.80;99.90;;;;;;5015980;28;20972;-73
2022/04/15 10:34:21;;;;;;;17.07;15.37;;;19.70;99.90;;;;;;5016753;28;20515;-74
2022/04/15 10:36:48;;;;;;;18.23;15.37;;;19.80;99.90;;;;;;5018568;28;20893;-74
2022/04/15 10:39:16;;;;;;;18.30;15.03;;;20.00;99.90;;;;;;5018420;28;20471;-74
2022/04/15 10:41:42;;;;;;;17.43;13.73;;;19.90;99.90;;;;;;5017786;28;20428;-74
2022/04/15 10:44:31;;;;;;;17.27;14.80;;;19.80;99.90;;;;;;5020535;28;20435;-73
2022/04/15 10:47:11;;;;;;;17.03;14.37;;;19.90;99.90;;;;;;5020375;28;20560;-74
2022/04/15 10:49:58;;;;;;;18.47;14.87;;;20.00;99.90;;;;;;5011425;28;20542;-75
2022/04/15 10:52:25;;;;;;;17.73;15.83;;;20.30;99.90;;;;;;5016570;28;20440;-73
2022/04/15 10:55:02;;;;;;;23.60;16.33;;;20.30;99.90;;;;;;5018611;28;21222;-75
2022/04/15 10:57:40;;;;;;;21.73;19.43;;;20.10;99.90;;;;;;5020846;28;21290;-74
2022/04/15 11:03:24;;;;;;;18.90;15.43;;;20.40;99.90;;;;;;5017967;28;20625;-73
2022/04/15 11:05:50;;;;;;;19.03;16.07;;;20.40;99.90;;;;;;5021210;28;21024;-74
2022/04/15 11:08:20;;;;;;;18.43;14.67;;;20.40;99.90;;;;;;5019896;28;20435;-74
2022/04/15 11:10:52;;;;;;;17.53;15.40;;;20.60;99.90;;;;;;5018170;28;20224;-74
2022/04/15 11:13:29;;;;;;;15.60;14.00;;;20.60;99.90;;;;;;5016640;28;20819;-74
2022/04/15 11:16:00;;;;;;;15.80;13.53;;;20.80;99.90;;;;;;5017731;28;20440;-74
2022/04/15 11:18:48;;;;;;;22.73;15.30;;;20.80;99.90;;;;;;5018991;28;20497;-75
2022/04/15 11:21:21;;;;;;;16.50;14.80;;;20.90;99.90;;;;;;5015790;28;21063;-73
2022/04/15 11:23:52;;;;;;;15.60;14.00;;;20.90;99.90;;;;;;5015215;28;20586;-73
2022/04/15 11:26:22;;;;;;;17.17;13.87;;;20.90;99.90;;;;;;5018970;28;20462;-74
2022/04/15 11:28:52;;;;;;;16.43;13.97;;;21.00;99.90;;;;;;5025305;28;20454;-73
2022/04/15 11:31:23;;;;;;;17.00;14.47;;;20.90;99.90;;;;;;5018152;28;20450;-74
2022/04/15 11:33:49;;;;;;;16.40;14.80;;;21.00;99.90;;;;;;5020355;28;20462;-74
2022/04/15 11:36:18;;;;;;;15.80;13.83;;;20.90;99.90;;;;;;5024281;28;20522;-74
2022/04/15 11:38:45;;;;;;;15.00;13.47;;;21.00;99.90;;;;;;5017896;28;20472;-74
2022/04/15 11:41:21;;;;;;;17.60;15.80;;;21.10;99.90;;;;;;5013910;28;20469;-73
2022/04/15 11:44:01;;;;;;;18.43;14.40;;;20.90;99.50;;;;;;5014511;28;20444;-74
2022/04/15 11:46:36;;;;;;;14.60;13.10;;;21.10;99.80;;;;;;5014803;28;20521;-73
2022/04/15 11:49:22;;;;;;;18.50;13.40;;;21.30;99.90;;;;;;5015524;28;20427;-73
2022/04/15 11:51:49;;;;;;;15.50;12.80;;;21.40;98.80;;;;;;5010363;28;20455;-74
2022/04/15 11:54:15;;;;;;;17.43;13.53;;;21.50;98.90;;;;;;5016677;28;20490;-74
2022/04/15 11:56:42;;;;;;;13.83;12.53;;;21.40;98.80;;;;;;5013467;28;20482;-74
2022/04/15 11:59:10;;;;;;;16.67;13.13;;;21.50;99.10;;;;;;5016165;28;20475;-76
2022/04/15 12:01:37;;;;;;;15.87;13.50;;;21.70;98.40;;;;;;5011580;28;20442;-74
2022/04/15 12:04:05;;;;;;;12.37;11.07;;;21.80;97.80;;;;;;5012784;28;21165;-74
2022/04/15 12:06:31;;;;;;;19.23;12.10;;;22.00;98.30;;;;;;5014950;28;20974;-73
2022/04/15 12:08:57;;;;;;;13.27;11.97;;;22.30;97.50;;;;;;5012411;28;20559;-74
2022/04/15 12:11:25;;;;;;;12.37;11.27;;;22.70;96.80;;;;;;5010380;28;20609;-75
2022/04/15 12:13:58;;;;;;;14.30;12.80;;;22.90;96.60;;;;;;5013781;28;20871;-75
2022/04/15 12:16:25;;;;;;;13.60;11.20;;;23.20;95.40;;;;;;5013065;28;21002;-72
2022/04/15 12:18:53;;;;;;;11.20;10.00;;;23.40;95.60;;;;;;5015801;28;21021;-72
2022/04/15 12:21:22;;;;;;;14.17;12.33;;;23.50;95.20;;;;;;5012279;28;21021;-74
2022/04/15 12:24:09;;;;;;;12.57;11.30;;;24.00;93.30;;;;;;5013181;28;20435;-72
2022/04/15 12:26:49;;;;;;;13.17;11.97;;;24.10;92.50;;;;;;5017994;28;20435;-73
2022/04/15 12:32:24;;;;;;;14.57;9.90;;;24.30;92.20;;;;;;5014981;28;20450;-77
2022/04/15 12:34:55;;;;;;;12.77;10.77;;;24.40;90.80;;;;;;5013077;28;20434;-75
2022/04/15 12:37:43;;;;;;;12.17;10.97;;;24.60;90.30;;;;;;5013043;28;20858;-75
2022/04/15 12:41:04;;;;;;;16.40;9.77;;;24.60;88.30;;;;;;5072332;22;20494;-74
2022/04/15 12:43:33;;;;;;;9.13;8.23;;;24.50;88.10;;;;;;5015485;28;20443;-75